Time;durP1;ratioP1;P1;durP2;ratioP2;P2;SDS_P1;SDS_P2;PMS_P1;PMS_P2;Temp;Humidity;BMP_temperature;BMP_pressure;BME280_temperature;BME280_humidity;BME280_pressure;Samples;Min_cycle;Max_cycle;Signal;HPM_P1;HPM_P2
2022/11/28 00:02:21;;;;;;;;;;;19.70;99.90;;;;;;5053513;28;20368;-60
2022/11/28 00:04:50;;;;;;;;;;;19.80;99.90;;;;;;5053033;28;20284;-60
2022/11/28 00:07:16;;;;;;;;;;;20.00;99.90;;;;;;5053271;28;19962;-59
2022/11/28 00:09:43;;;;;;;;;;;20.00;99.90;;;;;;5053152;28;19920;-59
2022/11/28 00:12:10;;;;;;;;;;;20.00;99.90;;;;;;5053190;28;19908;-60
2022/11/28 00:14:36;;;;;;;;;;;20.00;99.90;;;;;;5053161;28;19948;-59
2022/11/28 00:17:03;;;;;;;;;;;20.00;99.90;;;;;;5052802;28;19909;-59
2022/11/28 00:19:30;;;;;;;;;;;20.00;99.90;;;;;;5053116;28;20260;-60
2022/11/28 00:21:56;;;;;;;;;;;20.00;99.90;;;;;;5053067;28;19909;-59
2022/11/28 00:24:25;;;;;;;;;;;20.10;99.90;;;;;;5052913;28;19917;-60
2022/11/28 00:26:51;;;;;;;;;;;20.20;99.90;;;;;;5052793;28;19959;-60
2022/11/28 00:29:18;;;;;;;;;;;20.50;99.90;;;;;;5053141;28;19955;-60
2022/11/28 00:31:45;;;;;;;;;;;20.70;99.90;;;;;;5053016;28;20324;-68
2022/11/28 00:34:12;;;;;;;;;;;20.70;99.90;;;;;;5055947;28;19908;-67
2022/11/28 00:36:39;;;;;;;;;;;20.80;99.90;;;;;;5057117;28;19909;-67
2022/11/28 00:39:06;;;;;;;;;;;20.70;99.90;;;;;;5056713;28;20399;-67
2022/11/28 00:41:34;;;;;;;;;;;20.70;99.90;;;;;;5057108;28;19971;-67
2022/11/28 00:44:00;;;;;;;;;;;20.70;99.90;;;;;;5056928;28;19924;-66
2022/11/28 00:46:27;;;;;;;;;;;20.90;99.90;;;;;;5056772;28;19909;-67
2022/11/28 00:48:54;;;;;;;;;;;21.30;99.90;;;;;;5056512;28;19919;-67
2022/11/28 00:51:22;;;;;;;;;;;22.00;99.90;;;;;;5056986;28;19909;-68
2022/11/28 00:53:50;;;;;;;;;;;22.60;99.90;;;;;;5056836;28;19909;-68
2022/11/28 00:56:18;;;;;;;;;;;22.90;99.90;;;;;;5056661;28;19924;-68
2022/11/28 00:58:44;;;;;;;;;;;23.50;99.90;;;;;;5056622;28;19912;-60
2022/11/28 01:01:12;;;;;;;;;;;23.90;99.90;;;;;;5056626;28;19963;-68
2022/11/28 01:03:39;;;;;;;;;;;24.40;99.90;;;;;;5056566;28;19939;-68
2022/11/28 01:06:06;;;;;;;;;;;24.70;99.90;;;;;;5056485;28;19909;-68
2022/11/28 01:08:33;;;;;;;;;;;24.50;99.90;;;;;;5055380;28;19941;-68
2022/11/28 01:11:00;;;;;;;;;;;24.50;99.90;;;;;;5056311;28;19955;-68
2022/11/28 01:13:27;;;;;;;;;;;24.30;99.90;;;;;;5056522;28;20568;-68
2022/11/28 01:15:53;;;;;;;;;;;24.90;99.90;;;;;;5056437;28;19909;-66
2022/11/28 01:18:20;;;;;;;;;;;25.20;99.90;;;;;;5056415;28;19908;-68
2022/11/28 01:20:47;;;;;;;;;;;24.90;99.90;;;;;;5056212;28;19917;-68
2022/11/28 01:23:13;;;;;;;;;;;24.40;99.90;;;;;;5056274;28;19913;-68
2022/11/28 01:25:40;;;;;;;;;;;23.70;99.90;;;;;;5056277;28;19952;-69
2022/11/28 01:28:07;;;;;;;;;;;23.10;99.90;;;;;;5056215;28;20347;-69
2022/11/28 01:30:33;;;;;;;;;;;23.50;99.90;;;;;;5056134;28;20026;-64
2022/11/28 01:33:00;;;;;;;;;;;23.30;99.90;;;;;;5055936;28;19909;-67
2022/11/28 01:35:27;;;;;;;;;;;23.20;99.90;;;;;;5056007;28;19988;-70
2022/11/28 01:37:53;;;;;;;;;;;23.40;99.90;;;;;;5056195;28;19909;-68
2022/11/28 01:40:20;;;;;;;;;;;23.50;99.90;;;;;;5055846;28;19909;-64
2022/11/28 01:42:47;;;;;;;;;;;23.20;99.90;;;;;;5055699;28;19909;-66
2022/11/28 01:45:20;;;;;;;;;;;22.80;99.90;;;;;;5054549;28;19923;-67
2022/11/28 01:47:48;;;;;;;;;;;22.60;99.90;;;;;;5055629;28;19990;-59
2022/11/28 01:50:15;;;;;;;;;;;22.60;99.90;;;;;;5055706;28;19952;-63
2022/11/28 01:52:45;;;;;;;;;;;22.60;99.90;;;;;;5055619;28;19917;-64
2022/11/28 01:55:13;;;;;;;;;;;22.60;99.90;;;;;;5055446;28;19908;-67
2022/11/28 01:57:40;;;;;;;;;;;22.70;99.90;;;;;;5055561;28;20359;-68
2022/11/28 02:00:10;;;;;;;;;;;22.70;99.90;;;;;;5055449;28;19963;-68
2022/11/28 02:02:40;;;;;;;;;;;22.80;99.90;;;;;;5055107;28;20347;-70
2022/11/28 02:05:07;;;;;;;;;;;22.70;99.90;;;;;;5055188;28;19969;-67
2022/11/28 02:07:35;;;;;;;;;;;22.60;99.90;;;;;;5055282;28;20318;-60
2022/11/28 02:10:02;;;;;;;;;;;22.80;99.90;;;;;;5055351;28;19909;-66
2022/11/28 02:12:35;;;;;;;;;;;23.00;99.90;;;;;;5055276;28;20271;-68
2022/11/28 02:15:08;;;;;;;;;;;22.90;99.90;;;;;;5055100;28;20371;-62
2022/11/28 02:17:43;;;;;;;;;;;22.90;99.90;;;;;;5055137;28;19913;-60
2022/11/28 02:20:28;;;;;;;;;;;22.70;99.90;;;;;;5055266;28;19999;-60
2022/11/28 02:22:54;;;;;;;;;;;22.40;99.90;;;;;;5054948;28;20322;-60
2022/11/28 02:25:24;;;;;;;;;;;22.30;99.90;;;;;;5055225;28;19909;-62
2022/11/28 02:28:00;;;;;;;;;;;22.20;99.90;;;;;;5055056;28;20253;-65
2022/11/28 02:30:42;;;;;;;;;;;22.00;99.90;;;;;;5054941;28;20315;-67
2022/11/28 02:33:14;;;;;;;;;;;21.90;99.90;;;;;;5054423;28;20403;-68
2022/11/28 02:35:41;;;;;;;;;;;21.80;99.90;;;;;;5055012;28;19908;-68
2022/11/28 02:38:34;;;;;;;;;;;21.80;99.90;;;;;;5054978;28;20367;-68
2022/11/28 02:41:00;;;;;;;;;;;22.00;99.90;;;;;;5050987;28;20377;-68
2022/11/28 02:43:39;;;;;;;;;;;22.20;99.90;;;;;;5054793;28;19923;-68
2022/11/28 02:46:11;;;;;;;;;;;22.40;99.90;;;;;;5054810;28;19947;-64
2022/11/28 02:48:58;;;;;;;;;;;22.20;99.90;;;;;;5054601;28;20006;-61
2022/11/28 02:51:28;;;;;;;;;;;21.90;99.90;;;;;;5054757;28;19913;-61
2022/11/28 02:53:55;;;;;;;;;;;21.90;99.90;;;;;;5054670;28;19913;-59
2022/11/28 02:56:23;;;;;;;;;;;21.70;99.90;;;;;;5054139;28;19920;-62
2022/11/28 02:58:49;;;;;;;;;;;21.80;99.90;;;;;;5054304;28;19913;-60
2022/11/28 03:01:18;;;;;;;;;;;21.80;99.90;;;;;;5054316;28;20373;-61
2022/11/28 03:03:51;;;;;;;;;;;21.70;99.90;;;;;;5054104;28;20389;-60
2022/11/28 03:06:34;;;;;;;;;;;21.80;99.90;;;;;;5054371;28;19935;-60
2022/11/28 03:09:13;;;;;;;;;;;21.80;99.90;;;;;;5054038;28;19913;-59
2022/11/28 03:11:46;;;;;;;;;;;22.00;99.90;;;;;;5054203;28;19908;-60
2022/11/28 03:14:16;;;;;;;;;;;22.10;99.90;;;;;;5054233;28;19948;-60
2022/11/28 03:16:42;;;;;;;;;;;22.20;99.90;;;;;;5053912;28;19909;-61
2022/11/28 03:19:31;;;;;;;;;;;21.80;99.90;;;;;;5053893;28;19915;-61
2022/11/28 03:21:58;;;;;;;;;;;21.70;99.90;;;;;;5053739;28;19912;-60
2022/11/28 03:24:28;;;;;;;;;;;21.60;99.90;;;;;;5053965;28;19920;-60
2022/11/28 03:27:11;;;;;;;;;;;21.70;99.90;;;;;;5053825;28;19919;-59
2022/11/28 03:29:43;;;;;;;;;;;21.90;99.90;;;;;;5053848;28;19915;-60
2022/11/28 03:32:12;;;;;;;;;;;21.90;99.90;;;;;;5053612;28;19963;-60
2022/11/28 03:34:43;;;;;;;;;;;21.80;99.90;;;;;;5053767;28;19909;-60
2022/11/28 03:37:21;;;;;;;;;;;21.70;99.90;;;;;;5053779;28;20339;-61
2022/11/28 03:39:49;;;;;;;;;;;21.70;99.90;;;;;;5053503;28;19909;-60
2022/11/28 03:42:18;;;;;;;;;;;21.90;99.90;;;;;;5053600;28;20276;-60
2022/11/28 03:45:05;;;;;;;;;;;22.00;99.90;;;;;;5053334;28;19921;-60
2022/11/28 03:47:34;;;;;;;;;;;22.00;99.90;;;;;;5053046;28;19916;-61
2022/11/28 03:50:14;;;;;;;;;;;22.10;99.90;;;;;;5053556;28;20320;-59
2022/11/28 03:52:44;;;;;;;;;;;22.10;99.90;;;;;;5053392;28;19932;-60
2022/11/28 03:55:15;;;;;;;;;;;21.80;99.90;;;;;;5053410;28;19923;-59
2022/11/28 03:57:46;;;;;;;;;;;21.90;99.90;;;;;;5053513;28;19943;-60
2022/11/28 04:00:13;;;;;;;;;;;21.60;99.90;;;;;;5053352;28;20003;-59
2022/11/28 04:03:03;;;;;;;;;;;21.40;99.90;;;;;;5052951;28;19913;-59
2022/11/28 04:05:41;;;;;;;;;;;21.20;99.90;;;;;;5052702;28;19958;-60
2022/11/28 04:08:11;;;;;;;;;;;21.10;99.90;;;;;;5052555;28;19909;-59
2022/11/28 04:10:38;;;;;;;;;;;21.10;99.90;;;;;;5053139;28;20030;-59
2022/11/28 04:13:14;;;;;;;;;;;21.00;99.90;;;;;;5052811;28;20703;-59
2022/11/28 04:16:00;;;;;;;;;;;20.80;99.90;;;;;;5053221;28;19916;-59
2022/11/28 04:18:31;;;;;;;;;;;20.90;99.90;;;;;;5052942;28;19916;-60
2022/11/28 04:20:57;;;;;;;;;;;21.20;99.90;;;;;;5052890;28;20253;-59
2022/11/28 04:23:25;;;;;;;;;;;21.20;99.90;;;;;;5052842;28;20402;-59
2022/11/28 04:25:53;;;;;;;;;;;21.20;99.90;;;;;;5052867;28;19932;-60
2022/11/28 04:28:22;;;;;;;;;;;21.10;99.90;;;;;;5052817;28;20003;-59
2022/11/28 04:30:50;;;;;;;;;;;21.10;99.90;;;;;;5052644;28;20352;-60
2022/11/28 04:33:18;;;;;;;;;;;21.20;99.90;;;;;;5052811;28;19962;-60
2022/11/28 04:35:48;;;;;;;;;;;21.00;99.90;;;;;;5053030;28;19980;-59
2022/11/28 04:38:15;;;;;;;;;;;21.10;99.90;;;;;;5048681;28;19913;-60
2022/11/28 04:40:53;;;;;;;;;;;21.10;99.90;;;;;;5051286;28;19916;-59
2022/11/28 04:43:24;;;;;;;;;;;21.00;99.90;;;;;;5051136;28;19919;-60
2022/11/28 04:45:52;;;;;;;;;;;21.00;99.90;;;;;;5051810;28;19927;-59
2022/11/28 04:48:19;;;;;;;;;;;21.00;99.90;;;;;;5050956;28;19915;-60
2022/11/28 04:50:46;;;;;;;;;;;21.30;99.90;;;;;;5050848;28;19909;-60
2022/11/28 04:53:18;;;;;;;;;;;21.50;99.90;;;;;;5051271;28;19909;-59
2022/11/28 04:55:52;;;;;;;;;;;21.40;99.90;;;;;;5051288;28;19920;-61
2022/11/28 04:58:28;;;;;;;;;;;21.10;99.90;;;;;;5051907;28;20367;-59
2022/11/28 05:00:56;;;;;;;;;;;21.10;99.90;;;;;;5052051;28;20398;-59
2022/11/28 05:03:26;;;;;;;;;;;21.30;99.90;;;;;;5052530;28;19931;-59
2022/11/28 05:05:53;;;;;;;;;;;21.50;99.90;;;;;;5052818;28;19962;-65
2022/11/28 05:08:20;;;;;;;;;;;21.60;99.90;;;;;;5052767;28;19909;-63
2022/11/28 05:10:46;;;;;;;;;;;21.50;99.90;;;;;;5052598;28;19909;-64
2022/11/28 05:13:13;;;;;;;;;;;21.30;99.90;;;;;;5052688;28;20291;-60
2022/11/28 05:15:40;;;;;;;;;;;21.20;99.90;;;;;;5052446;28;19909;-61
2022/11/28 05:18:07;;;;;;;;;;;21.20;99.90;;;;;;5052582;28;19908;-65
2022/11/28 05:20:33;;;;;;;;;;;21.40;99.90;;;;;;5055756;28;19916;-63
2022/11/28 05:23:00;;;;;;;;;;;21.30;99.90;;;;;;5056112;28;19917;-62
2022/11/28 05:25:27;;;;;;;;;;;21.30;99.90;;;;;;5056180;28;19944;-61
2022/11/28 05:27:54;;;;;;;;;;;21.20;99.90;;;;;;5056202;28;19915;-61
2022/11/28 05:30:20;;;;;;;;;;;21.10;99.90;;;;;;5056138;28;20367;-63
2022/11/28 05:32:47;;;;;;;;;;;21.10;99.90;;;;;;5055753;28;19913;-63
2022/11/28 05:35:14;;;;;;;;;;;20.90;99.90;;;;;;5056159;28;19955;-66
2022/11/28 05:37:40;;;;;;;;;;;20.80;99.90;;;;;;5055941;28;20312;-65
2022/11/28 05:40:07;;;;;;;;;;;20.70;99.90;;;;;;5055927;28;19909;-63
2022/11/28 05:42:35;;;;;;;;;;;20.60;99.90;;;;;;5055294;28;19917;-64
2022/11/28 05:45:01;;;;;;;;;;;20.60;99.90;;;;;;5039458;28;20283;-61
2022/11/28 05:47:32;;;;;;;;;;;20.50;99.90;;;;;;5035450;28;19916;-60
2022/11/28 05:49:59;;;;;;;;;;;20.40;99.90;;;;;;5035677;28;19909;-62
2022/11/28 05:52:28;;;;;;;;;;;20.40;99.90;;;;;;5033084;28;19909;-61
2022/11/28 05:54:55;;;;;;;;;;;20.40;99.90;;;;;;5033279;28;19920;-61
2022/11/28 05:57:21;;;;;;;;;;;20.40;99.90;;;;;;5033542;28;19927;-61
2022/11/28 05:59:48;;;;;;;;;;;20.40;99.90;;;;;;5033175;28;19910;-65
2022/11/28 06:02:15;;;;;;;;;;;20.50;99.90;;;;;;5033399;28;20012;-66
2022/11/28 06:04:41;;;;;;;;;;;20.50;99.90;;;;;;5033074;28;19928;-62
2022/11/28 06:07:08;;;;;;;;;;;20.40;99.90;;;;;;5033329;28;20405;-61
2022/11/28 06:09:35;;;;;;;;;;;20.40;99.90;;;;;;5033357;28;19967;-61
2022/11/28 06:12:02;;;;;;;;;;;20.40;99.90;;;;;;5033352;28;19933;-62
2022/11/28 06:14:28;;;;;;;;;;;20.40;99.90;;;;;;5032617;28;19909;-64
2022/11/28 06:16:55;;;;;;;;;;;20.40;99.90;;;;;;5033076;28;19916;-64
2022/11/28 06:19:22;;;;;;;;;;;20.50;99.90;;;;;;5033361;28;19987;-62
2022/11/28 06:21:51;;;;;;;;;;;20.40;99.90;;;;;;5015487;28;19909;-65
2022/11/28 06:24:18;;;;;;;;;;;20.50;99.90;;;;;;5033073;28;19968;-65
2022/11/28 06:26:45;;;;;;;;;;;20.50;99.90;;;;;;5032920;28;20284;-61
2022/11/28 06:29:12;;;;;;;;;;;20.40;99.90;;;;;;5032504;28;20331;-65
2022/11/28 06:31:38;;;;;;;;;;;20.60;99.90;;;;;;5031686;28;19920;-61
2022/11/28 06:34:05;;;;;;;;;;;20.50;99.90;;;;;;5032956;28;19909;-63
2022/11/28 06:36:32;;;;;;;;;;;20.40;99.90;;;;;;5032980;28;19951;-63
2022/11/28 06:38:59;;;;;;;;;;;20.40;99.90;;;;;;5032707;28;20382;-62
2022/11/28 06:41:26;;;;;;;;;;;20.40;99.90;;;;;;5032773;28;19910;-65
2022/11/28 06:43:52;;;;;;;;;;;20.40;99.90;;;;;;5031706;28;20382;-66
2022/11/28 06:46:20;;;;;;;;;;;20.30;99.90;;;;;;5032257;28;19931;-65
2022/11/28 06:48:48;;;;;;;;;;;20.20;99.90;;;;;;5032568;28;19909;-63
2022/11/28 06:51:15;;;;;;;;;;;20.20;99.90;;;;;;5032503;28;19913;-61
2022/11/28 06:53:42;;;;;;;;;;;20.20;99.90;;;;;;5032609;28;20019;-61
2022/11/28 06:56:14;;;;;;;;;;;20.20;99.90;;;;;;5031960;28;19920;-59
2022/11/28 06:58:41;;;;;;;;;;;20.10;99.90;;;;;;5031834;28;20375;-64
2022/11/28 07:01:12;;;;;;;;;;;20.00;99.90;;;;;;5032246;28;20265;-61
2022/11/28 07:03:40;;;;;;;;;;;20.10;99.90;;;;;;5032453;28;19924;-63
2022/11/28 07:06:07;;;;;;;;;;;20.20;99.90;;;;;;5032271;28;19971;-60
2022/11/28 07:08:33;;;;;;;;;;;20.20;99.90;;;;;;5032219;28;19913;-61
2022/11/28 07:11:20;;;;;;;;;;;20.30;99.90;;;;;;5031730;28;19917;-61
2022/11/28 07:13:47;;;;;;;;;;;20.20;99.90;;;;;;5031221;28;20430;-63
2022/11/28 07:16:15;;;;;;;;;;;20.20;99.90;;;;;;5031940;28;19949;-62
2022/11/28 07:18:43;;;;;;;;;;;20.10;99.90;;;;;;5032236;28;20008;-64
2022/11/28 07:21:09;;;;;;;;;;;20.20;99.90;;;;;;5031644;28;19987;-63
2022/11/28 07:23:36;;;;;;;;;;;20.10;99.90;;;;;;5031652;28;20042;-62
2022/11/28 07:26:04;;;;;;;;;;;20.00;99.90;;;;;;5031870;28;19913;-61
2022/11/28 07:28:31;;;;;;;;;;;20.00;99.90;;;;;;5031187;28;20027;-60
2022/11/28 07:31:02;;;;;;;;;;;19.80;99.90;;;;;;5031765;28;19920;-63
2022/11/28 07:33:30;;;;;;;;;;;19.80;99.90;;;;;;5031684;28;20360;-61
2022/11/28 07:36:03;;;;;;;;;;;19.80;99.90;;;;;;5031406;28;19917;-60
2022/11/28 07:38:30;;;;;;;;;;;19.80;99.90;;;;;;5031819;28;19955;-60
2022/11/28 07:41:05;;;;;;;;;;;19.90;99.90;;;;;;5031466;28;20351;-61
2022/11/28 07:43:31;;;;;;;;;;;20.00;99.90;;;;;;5031101;28;19921;-61
2022/11/28 07:45:58;;;;;;;;;;;20.00;99.90;;;;;;5031400;28;20422;-59
2022/11/28 07:48:25;;;;;;;;;;;19.90;99.90;;;;;;5031355;28;19924;-59
2022/11/28 07:50:52;;;;;;;;;;;19.80;99.90;;;;;;5031633;28;19917;-60
2022/11/28 07:53:18;;;;;;;;;;;19.80;99.90;;;;;;5031495;28;20314;-60
2022/11/28 07:55:45;;;;;;;;;;;19.70;99.90;;;;;;5031341;28;19921;-60
2022/11/28 07:58:12;;;;;;;;;;;19.80;99.90;;;;;;5031012;28;20007;-60
2022/11/28 08:00:39;;;;;;;;;;;19.70;99.90;;;;;;5031285;28;19935;-60
2022/11/28 08:03:05;;;;;;;;;;;19.70;99.90;;;;;;5030795;28;20237;-60
2022/11/28 08:05:32;;;;;;;;;;;19.70;99.90;;;;;;5031307;28;19913;-61
2022/11/28 08:07:59;;;;;;;;;;;19.80;99.90;;;;;;5031263;28;19955;-60
2022/11/28 08:10:26;;;;;;;;;;;19.80;99.90;;;;;;5031786;28;19909;-60
2022/11/28 08:12:53;;;;;;;;;;;19.80;99.90;;;;;;5014867;28;19916;-60
2022/11/28 08:15:19;;;;;;;;;;;19.80;99.90;;;;;;5033061;28;19910;-60
2022/11/28 08:17:46;;;;;;;;;;;19.70;99.90;;;;;;5033205;28;20047;-60
2022/11/28 08:20:13;;;;;;;;;;;19.60;99.90;;;;;;5033197;28;19916;-60
2022/11/28 08:22:39;;;;;;;;;;;19.60;99.90;;;;;;5033375;28;19916;-60
2022/11/28 08:25:06;;;;;;;;;;;19.50;99.90;;;;;;5032920;28;19917;-61
2022/11/28 08:27:33;;;;;;;;;;;19.50;99.90;;;;;;5033393;28;19909;-61
2022/11/28 08:30:00;;;;;;;;;;;19.50;99.90;;;;;;5032917;28;20353;-61
2022/11/28 08:32:28;;;;;;;;;;;19.50;99.90;;;;;;5033156;28;19909;-66
2022/11/28 08:34:55;;;;;;;;;;;19.50;99.90;;;;;;5032859;28;20386;-62
2022/11/28 08:37:22;;;;;;;;;;;19.50;99.90;;;;;;5033118;28;19917;-63
2022/11/28 08:39:48;;;;;;;;;;;19.50;99.90;;;;;;5033239;28;19998;-66
2022/11/28 08:42:15;;;;;;;;;;;19.50;99.90;;;;;;5033033;28;19909;-67
2022/11/28 08:44:42;;;;;;;;;;;19.40;99.90;;;;;;5032982;28;19925;-62
2022/11/28 08:47:08;;;;;;;;;;;19.40;99.90;;;;;;5032893;28;20257;-60
2022/11/28 08:49:36;;;;;;;;;;;19.40;99.90;;;;;;5033126;28;19944;-64
2022/11/28 08:52:04;;;;;;;;;;;19.40;99.90;;;;;;5032876;28;19996;-66
2022/11/28 08:54:31;;;;;;;;;;;19.40;99.90;;;;;;5034675;28;19963;-59
2022/11/28 08:56:58;;;;;;;;;;;19.40;99.90;;;;;;5036546;28;20012;-61
2022/11/28 08:59:25;;;;;;;;;;;19.30;99.90;;;;;;5036608;28;19913;-60
2022/11/28 09:01:52;;;;;;;;;;;19.40;99.90;;;;;;5036551;28;20035;-59
2022/11/28 09:04:20;;;;;;;;;;;19.40;99.90;;;;;;5036580;28;19917;-59
2022/11/28 09:06:46;;;;;;;;;;;19.50;99.90;;;;;;5036179;28;19909;-61
2022/11/28 09:09:13;;;;;;;;;;;19.40;99.90;;;;;;5036756;28;19913;-59
2022/11/28 09:11:40;;;;;;;;;;;19.50;99.90;;;;;;5036555;28;19915;-60
2022/11/28 09:14:07;;;;;;;;;;;19.40;99.90;;;;;;5036566;28;20425;-60
2022/11/28 09:16:34;;;;;;;;;;;19.50;99.90;;;;;;5036591;28;19952;-59
2022/11/28 09:19:01;;;;;;;;;;;19.50;99.90;;;;;;5036430;28;19969;-60
2022/11/28 09:21:27;;;;;;;;;;;19.40;99.90;;;;;;5034776;28;20365;-61
2022/11/28 09:23:54;;;;;;;;;;;19.40;99.90;;;;;;5034145;28;20040;-59
2022/11/28 09:26:23;;;;;;;;;;;19.40;99.90;;;;;;5034135;28;19960;-58
2022/11/28 09:28:50;;;;;;;;;;;19.30;99.90;;;;;;5033967;28;19913;-60
2022/11/28 09:31:17;;;;;;;;;;;19.30;99.90;;;;;;5034163;28;19931;-60
2022/11/28 09:33:45;;;;;;;;;;;19.30;99.90;;;;;;5034120;28;19959;-60
2022/11/28 09:36:15;;;;;;;;;;;19.30;99.90;;;;;;5033666;28;19909;-60
2022/11/28 09:38:42;;;;;;;;;;;19.20;99.90;;;;;;5034129;28;19913;-62
2022/11/28 09:41:30;;;;;;;;;;;19.20;99.90;;;;;;5033851;28;19943;-60
2022/11/28 09:44:00;;;;;;;;;;;19.30;99.90;;;;;;5033946;28;19924;-60
2022/11/28 09:46:29;;;;;;;;;;;19.20;99.90;;;;;;5033913;28;19910;-63
2022/11/28 09:48:57;;;;;;;;;;;19.20;99.90;;;;;;5033135;28;19909;-60
2022/11/28 09:51:30;;;;;;;;;;;19.20;99.90;;;;;;5033969;28;19952;-60
2022/11/28 09:54:14;;;;;;;;;;;19.10;99.90;;;;;;5033567;28;19941;-60
2022/11/28 09:56:42;;;;;;;;;;;19.10;99.90;;;;;;5028808;28;20439;-63
2022/11/28 09:59:27;;;;;;;;;;;19.10;99.90;;;;;;5026767;28;19949;-61
2022/11/28 10:02:18;;;;;;;;;;;19.10;99.90;;;;;;5026735;28;19917;-61
2022/11/28 10:04:45;;;;;;;;;;;19.20;99.90;;;;;;5026700;28;19928;-61
2022/11/28 10:07:15;;;;;;;;;;;19.20;99.90;;;;;;5025850;28;19967;-64
2022/11/28 10:09:59;;;;;;;;;;;19.20;99.90;;;;;;5026800;28;19966;-60
2022/11/28 10:12:29;;;;;;;;;;;19.30;99.90;;;;;;5026857;28;19927;-63
2022/11/28 10:15:02;;;;;;;;;;;19.30;99.90;;;;;;5026478;28;19940;-62
2022/11/28 10:18:01;;;;;;;;;;;19.30;99.90;;;;;;5027046;28;19913;-61
2022/11/28 10:20:30;;;;;;;;;;;19.20;99.90;;;;;;4982698;28;19913;-62
2022/11/28 10:23:11;;;;;;;;;;;19.20;99.90;;;;;;5026460;28;19917;-64
2022/11/28 10:25:50;;;;;;;;;;;19.20;99.90;;;;;;5026885;28;19924;-62
2022/11/28 10:28:31;;;;;;;;;;;19.20;99.90;;;;;;5026425;28;19913;-61
2022/11/28 10:31:07;;;;;;;;;;;19.10;99.90;;;;;;5026304;28;19920;-61
2022/11/28 10:33:42;;;;;;;;;;;19.10;99.90;;;;;;5026481;28;19913;-64
2022/11/28 10:36:15;;;;;;;;;;;19.10;99.90;;;;;;5026616;28;19917;-62
2022/11/28 10:38:42;;;;;;;;;;;19.10;99.90;;;;;;5026536;28;19917;-61
2022/11/28 10:41:30;;;;;;;;;;;19.10;99.90;;;;;;5026033;28;20597;-62
2022/11/28 10:43:59;;;;;;;;;;;19.10;99.90;;;;;;5026206;28;20406;-61
2022/11/28 10:46:35;;;;;;;;;;;19.10;99.90;;;;;;5026358;28;20593;-66
2022/11/28 10:49:07;;;;;;;;;;;19.10;99.90;;;;;;5026141;28;19913;-62
2022/11/28 10:51:37;;;;;;;;;;;19.10;99.90;;;;;;5026183;28;19913;-62
2022/11/28 10:54:12;;;;;;;;;;;19.10;99.90;;;;;;5025818;28;19968;-60
2022/11/28 10:56:56;;;;;;;;;;;19.10;99.90;;;;;;5025857;28;19935;-64
2022/11/28 10:59:26;;;;;;;;;;;19.10;99.90;;;;;;5025855;28;19991;-66
2022/11/28 11:01:53;;;;;;;;;;;19.10;99.90;;;;;;5026010;28;19919;-61
2022/11/28 11:04:23;;;;;;;;;;;19.10;99.90;;;;;;5026191;28;19971;-63
2022/11/28 11:06:58;;;;;;;;;;;19.10;99.90;;;;;;5025427;28;19913;-62
2022/11/28 11:09:25;;;;;;;;;;;19.10;99.90;;;;;;5025683;28;19939;-62
2022/11/28 11:11:59;;;;;;;;;;;19.10;99.90;;;;;;5025867;28;19924;-69
2022/11/28 11:14:38;;;;;;;;;;;19.10;99.90;;;;;;5025624;28;20688;-65
2022/11/28 11:17:05;;;;;;;;;;;19.10;99.90;;;;;;5025341;28;20278;-69
2022/11/28 11:19:33;;;;;;;;;;;19.10;99.90;;;;;;5025178;28;19920;-70
2022/11/28 11:22:02;;;;;;;;;;;19.10;99.90;;;;;;5025753;28;19913;-67
2022/11/28 11:24:29;;;;;;;;;;;19.10;99.90;;;;;;5025632;28;19943;-69
2022/11/28 11:27:03;;;;;;;;;;;19.10;99.90;;;;;;5025559;28;20726;-69
2022/11/28 11:29:34;;;;;;;;;;;19.00;99.90;;;;;;5025533;28;20631;-69
2022/11/28 11:32:04;;;;;;;;;;;18.90;99.90;;;;;;5025061;28;19913;-66
2022/11/28 11:34:36;;;;;;;;;;;18.80;99.90;;;;;;5025434;28;19913;-69
2022/11/28 11:37:21;;;;;;;;;;;18.80;99.90;;;;;;5025127;28;19913;-69
2022/11/28 11:39:49;;;;;;;;;;;18.80;99.90;;;;;;5025290;28;19916;-68
2022/11/28 11:42:19;;;;;;;;;;;18.80;99.90;;;;;;5025243;28;19917;-69
2022/11/28 11:44:46;;;;;;;;;;;18.70;99.90;;;;;;5024371;28;20008;-69
2022/11/28 11:47:13;;;;;;;;;;;18.70;99.90;;;;;;5025231;28;19917;-70
2022/11/28 11:49:42;;;;;;;;;;;18.80;99.90;;;;;;5025339;28;20439;-69
2022/11/28 11:52:11;;;;;;;;;;;18.80;99.90;;;;;;5025084;28;19991;-69
2022/11/28 11:54:39;;;;;;;;;;;18.80;99.90;;;;;;5025052;28;20292;-69
2022/11/28 11:57:06;;;;;;;;;;;18.80;99.90;;;;;;5024449;28;19925;-69
2022/11/28 11:59:39;;;;;;;;;;;18.90;99.90;;;;;;5024637;28;20371;-69
2022/11/28 12:02:12;;;;;;;;;;;18.90;99.90;;;;;;5025099;28;20593;-69
2022/11/28 12:04:41;;;;;;;;;;;18.80;99.90;;;;;;5024928;28;19921;-69
2022/11/28 12:07:17;;;;;;;;;;;18.80;99.90;;;;;;5024966;28;19974;-68
2022/11/28 12:09:45;;;;;;;;;;;18.80;99.90;;;;;;5024621;28;19913;-60
2022/11/28 12:12:12;;;;;;;;;;;18.80;99.90;;;;;;5024504;28;19913;-69
2022/11/28 12:14:39;;;;;;;;;;;18.70;99.90;;;;;;5024826;28;19936;-70
2022/11/28 12:17:21;;;;;;;;;;;18.70;99.90;;;;;;5006522;28;20462;-66
2022/11/28 12:19:48;;;;;;;;;;;18.60;99.90;;;;;;5024528;28;19913;-68
2022/11/28 12:22:27;;;;;;;;;;;18.60;99.90;;;;;;5024694;28;19917;-66
2022/11/28 12:24:56;;;;;;;;;;;18.60;99.90;;;;;;5024145;28;20067;-65
2022/11/28 12:27:35;;;;;;;;;;;18.50;99.90;;;;;;5024723;28;20015;-69
2022/11/28 12:30:05;;;;;;;;;;;18.50;99.90;;;;;;5023828;28;20240;-66
2022/11/28 12:32:46;;;;;;;;;;;18.50;99.90;;;;;;5026068;28;19955;-64
2022/11/28 12:35:36;;;;;;;;;;;18.50;99.90;;;;;;5033346;28;20376;-68
2022/11/28 12:38:35;;;;;;;;;;;18.40;99.90;;;;;;5033009;28;19916;-65
2022/11/28 12:41:05;;;;;;;;;;;18.40;99.90;;;;;;4989345;28;19909;-68
2022/11/28 12:43:49;;;;;;;;;;;18.50;99.90;;;;;;5032958;28;20000;-67
2022/11/28 12:46:25;;;;;;;;;;;18.60;99.90;;;;;;5033130;28;19916;-67
2022/11/28 12:49:04;;;;;;;;;;;18.60;99.90;;;;;;5032949;28;19916;-68
2022/11/28 12:51:43;;;;;;;;;;;18.60;99.90;;;;;;5033221;28;19964;-69
2022/11/28 12:54:16;;;;;;;;;;;18.60;99.90;;;;;;5033038;28;19909;-67
2022/11/28 12:56:58;;;;;;;;;;;18.70;99.90;;;;;;5032746;28;19928;-68
2022/11/28 12:59:27;;;;;;;;;;;18.70;99.90;;;;;;5032856;28;20015;-69
2022/11/28 13:01:59;;;;;;;;;;;18.80;99.90;;;;;;5032918;28;20370;-69
2022/11/28 13:04:44;;;;;;;;;;;18.80;99.90;;;;;;5032927;28;19917;-67
2022/11/28 13:07:17;;;;;;;;;;;18.90;99.90;;;;;;5032801;28;20364;-60
2022/11/28 13:10:02;;;;;;;;;;;18.90;99.90;;;;;;5032897;28;19909;-67
2022/11/28 13:12:31;;;;;;;;;;;19.00;99.90;;;;;;5032875;28;19996;-65
2022/11/28 13:15:02;;;;;;;;;;;18.90;99.90;;;;;;5032475;28;19951;-62
2022/11/28 13:17:46;;;;;;;;;;;19.00;99.90;;;;;;5032773;28;20356;-67
2022/11/28 13:20:19;;;;;;;;;;;19.00;99.90;;;;;;5032878;28;20376;-60
2022/11/28 13:22:53;;;;;;;;;;;19.00;99.90;;;;;;5032562;28;20360;-60
2022/11/28 13:25:29;;;;;;;;;;;19.00;99.90;;;;;;5032675;28;19917;-60
2022/11/28 13:28:02;;;;;;;;;;;19.00;99.90;;;;;;5032577;28;20371;-60
2022/11/28 13:30:31;;;;;;;;;;;19.00;99.90;;;;;;5032685;28;19916;-60
2022/11/28 13:33:06;;;;;;;;;;;19.00;99.90;;;;;;5032356;28;20398;-60
2022/11/28 13:35:33;;;;;;;;;;;19.00;99.90;;;;;;5032689;28;20434;-60
2022/11/28 13:38:15;;;;;;;;;;;19.00;99.90;;;;;;5032601;28;20011;-60
2022/11/28 13:40:47;;;;;;;;;;;19.00;99.90;;;;;;5034359;28;20371;-60
2022/11/28 13:43:18;;;;;;;;;;;19.00;99.90;;;;;;5036126;28;19909;-60
2022/11/28 13:45:46;;;;;;;;;;;18.90;99.90;;;;;;5036245;28;19957;-60
2022/11/28 13:48:30;;;;;;;;;;;18.80;99.90;;;;;;5036179;28;19909;-60
2022/11/28 13:51:15;;;;;;;;;;;18.80;99.90;;;;;;5035770;28;19909;-61
2022/11/28 13:53:43;;;;;;;;;;;18.70;99.90;;;;;;5035961;28;20395;-60
2022/11/28 13:56:09;;;;;;;;;;;18.70;99.90;;;;;;5035968;28;19921;-60
2022/11/28 13:58:56;;;;;;;;;;;18.80;99.90;;;;;;5035802;28;19992;-59
2022/11/28 14:01:46;;;;;;;;;;;18.70;99.90;;;;;;5035942;28;20271;-60
2022/11/28 14:04:13;;;;;;;;;;;18.70;99.90;;;;;;5025547;28;19968;-60
2022/11/28 14:06:47;;;;;;;;;;;18.70;99.90;;;;;;5035797;28;20292;-60
2022/11/28 14:09:14;;;;;;;;;;;18.70;99.90;;;;;;5035710;28;19971;-59
2022/11/28 14:11:40;;;;;;;;;;;18.80;99.90;;;;;;5035717;28;20003;-59
2022/11/28 14:14:32;;;;;;;;;;;18.80;99.90;;;;;;5035527;28;19909;-60
2022/11/28 14:17:17;;;;;;;;;;;18.70;99.90;;;;;;5035526;28;19909;-60
2022/11/28 14:20:03;;;;;;;;;;;18.70;99.90;;;;;;5035509;28;19909;-60
2022/11/28 14:22:39;;;;;;;;;;;18.60;99.90;;;;;;5035446;28;19909;-60
2022/11/28 14:25:10;;;;;;;;;;;18.60;99.90;;;;;;5035250;28;19925;-60
2022/11/28 14:27:38;;;;;;;;;;;18.60;99.90;;;;;;5035277;28;20368;-60
2022/11/28 14:30:10;;;;;;;;;;;18.60;99.90;;;;;;5035254;28;19960;-60
2022/11/28 14:32:41;;;;;;;;;;;18.60;99.90;;;;;;5035363;28;19913;-60
2022/11/28 14:35:36;;;;;;;;;;;18.60;99.90;;;;;;5035297;28;19952;-69
2022/11/28 14:38:23;;;;;;;;;;;18.60;99.90;;;;;;5035184;28;19932;-69